createdAt,value
2023-02-03T00:00:09.187Z,97826.50
2023-02-03T00:01:10.929Z,97825.56
2023-02-03T00:02:12.778Z,97823.81
2023-02-03T00:03:14.605Z,97824.84
2023-02-03T00:04:16.486Z,97823.25
2023-02-03T00:05:18.300Z,97819.97
2023-02-03T00:06:20.143Z,97819.97
2023-02-03T00:07:22.921Z,97820.91
2023-02-03T00:08:24.727Z,97821.88
2023-02-03T00:09:26.629Z,97820.91
2023-02-03T00:10:28.487Z,97813.06
2023-02-03T00:11:31.052Z,97815.06
2023-02-03T00:12:33.160Z,97818.34
2023-02-03T00:13:35.514Z,97816.72
2023-02-03T00:14:38.215Z,97815.19
2023-02-03T00:15:40.022Z,97812.50
2023-02-03T00:16:41.989Z,97816.97
2023-02-03T00:17:43.783Z,97814.38
2023-02-03T00:18:45.554Z,97821.19
2023-02-03T00:19:47.371Z,97817.66
2023-02-03T00:20:49.212Z,97819.97
2023-02-03T00:21:51.015Z,97814.84
2023-02-03T00:22:52.809Z,97818.34
2023-02-03T00:23:54.949Z,97812.38
2023-02-03T00:24:56.786Z,97814.13
2023-02-03T00:26:06.548Z,97813.44
2023-02-03T00:27:08.500Z,97816.03
2023-02-03T00:28:10.368Z,97821.19
2023-02-03T00:29:12.267Z,97814.25
2023-02-03T00:30:14.151Z,97812.50
2023-02-03T00:31:17.292Z,97812.38
2023-02-03T00:32:19.168Z,97809.53
2023-02-03T00:33:21.068Z,97817.25
2023-02-03T00:34:22.882Z,97814.56
2023-02-03T00:35:24.656Z,97810.09
2023-02-03T00:36:26.749Z,97805.22
2023-02-03T00:37:28.680Z,97807.78
2023-02-03T00:38:30.505Z,97810.50
2023-02-03T00:39:32.305Z,97810.50
2023-02-03T00:40:34.168Z,97794.22
2023-02-03T00:41:35.959Z,97790.97
2023-02-03T00:42:37.761Z,97794.47
2023-02-03T00:43:39.636Z,97799.63
2023-02-03T00:44:41.678Z,97811.56
2023-02-03T00:45:43.490Z,97799.63
2023-02-03T00:46:45.336Z,97797.75
2023-02-03T00:47:47.285Z,97796.13
2023-02-03T00:48:49.115Z,97796.25
2023-02-03T00:49:50.913Z,97806.66
2023-02-03T00:50:52.917Z,97800.13
2023-02-03T00:51:54.643Z,97794.28
2023-02-03T00:52:56.448Z,97797.56
2023-02-03T00:53:58.291Z,97796.88
2023-02-03T00:55:00.139Z,97797.66
2023-02-03T00:56:02.018Z,97787.38
2023-02-03T00:57:03.915Z,97788.22
2023-02-03T00:58:05.758Z,97791.72
2023-02-03T00:59:07.572Z,97801.91
2023-02-03T01:00:09.694Z,97800.13
2023-02-03T01:01:12.050Z,97787.25
2023-02-03T01:02:13.977Z,97800.13
2023-02-03T01:03:16.883Z,97801.09
2023-02-03T01:04:18.665Z,97786.34
2023-02-03T01:05:20.481Z,97788.91
2023-02-03T01:06:22.724Z,97795.94
2023-02-03T01:07:24.490Z,97785.50
2023-02-03T01:08:26.872Z,97785.63
2023-02-03T01:09:28.668Z,97787.13
2023-02-03T01:10:30.661Z,97785.25
2023-02-03T01:11:32.865Z,97779.28
2023-02-03T01:12:34.746Z,97767.34
2023-02-03T01:13:36.872Z,97770.19
2023-02-03T01:14:38.660Z,97769.25
2023-02-03T01:15:46.094Z,97774.38
2023-02-03T01:16:47.932Z,97769.34
2023-02-03T01:17:50.185Z,97778.72
2023-02-03T01:18:51.966Z,97771.81
2023-02-03T01:19:53.795Z,97770.88
2023-02-03T01:20:55.667Z,97776.97
2023-02-03T01:21:57.467Z,97769.25
2023-02-03T01:22:59.253Z,97776.03
2023-02-03T01:24:01.640Z,97767.63
2023-02-03T01:25:03.417Z,97763.28
2023-02-03T01:26:06.843Z,97771.13
2023-02-03T01:27:08.810Z,97777.34
2023-02-03T01:28:10.971Z,97764.59
2023-02-03T01:29:12.823Z,97755.94
2023-02-03T01:30:14.817Z,97757.56
2023-02-03T01:31:18.973Z,97765.41
2023-02-03T01:32:20.971Z,97762.13
2023-02-03T01:33:22.828Z,97762.03
2023-02-03T01:34:24.647Z,97755.00
2023-02-03T01:35:26.528Z,97761.63
2023-02-03T01:36:29.712Z,97753.78
2023-02-03T01:37:31.621Z,97746.88
2023-02-03T01:38:33.413Z,97753.78
2023-02-03T01:39:35.160Z,97756.38
2023-02-03T01:40:43.093Z,97749.59
2023-02-03T01:41:44.928Z,97737.94
2023-02-03T01:42:46.802Z,97737.47
2023-02-03T01:43:50.064Z,97754.50
2023-02-03T01:44:52.776Z,97757.44
2023-02-03T01:45:54.573Z,97740.94
2023-02-03T01:46:56.390Z,97749.09
2023-02-03T01:47:59.965Z,97740.31
2023-02-03T01:49:06.565Z,97741.25
2023-02-03T01:50:08.415Z,97732.03
2023-02-03T01:51:10.413Z,97746.66
2023-02-03T01:52:12.209Z,97744.63
2023-02-03T01:53:14.253Z,97739.25
2023-02-03T01:54:18.654Z,97738.16
2023-02-03T01:55:23.218Z,97723.69
2023-02-03T01:56:28.993Z,97719.97
2023-02-03T01:57:34.245Z,97713.06
2023-02-03T01:58:38.479Z,97726.31
2023-02-03T01:59:40.448Z,97722.38
2023-02-03T02:00:44.042Z,97715.72
2023-02-03T02:01:46.834Z,97720.72
2023-02-03T02:02:49.215Z,97728.44
2023-02-03T02:03:54.032Z,97726.81
2023-02-03T02:04:55.796Z,97744.97
2023-02-03T02:06:02.085Z,97732.78
2023-02-03T02:07:04.535Z,97721.41
2023-02-03T02:08:07.569Z,97724.25
2023-02-03T02:09:09.625Z,97730.91
2023-02-03T02:10:11.553Z,97734.28
2023-02-03T02:11:13.485Z,97729.13
2023-02-03T02:12:15.304Z,97730.78
2023-02-03T02:13:18.416Z,97723.97
2023-02-03T02:14:20.222Z,97723.19
2023-02-03T02:15:24.888Z,97726.31
2023-02-03T02:16:35.507Z,97724.66
2023-02-03T02:17:37.428Z,97726.31
2023-02-03T02:18:49.879Z,97723.50
2023-02-03T02:19:54.705Z,97728.38
2023-02-03T02:21:14.800Z,97715.28
2023-02-03T02:22:16.538Z,97719.34
2023-02-03T02:23:52.850Z,97729.63
2023-02-03T02:25:13.417Z,97708.47
2023-02-03T02:26:15.208Z,97702.66
2023-02-03T02:27:25.760Z,97700.06
2023-02-03T02:28:43.936Z,97717.00
2023-02-03T02:30:03.936Z,97719.47
2023-02-03T02:31:14.974Z,97704.72
2023-02-03T02:32:16.750Z,97695.38
2023-02-03T02:33:26.777Z,97707.41
2023-02-03T02:34:28.525Z,97709.97
2023-02-03T02:35:38.833Z,97707.09
2023-02-03T02:36:55.395Z,97703.84
2023-02-03T02:37:57.133Z,97704.53
2023-02-03T02:39:07.277Z,97696.56
2023-02-03T02:40:11.685Z,97695.72
2023-02-03T02:41:19.589Z,97708.47
2023-02-03T02:42:27.052Z,97709.16
2023-02-03T02:43:33.373Z,97709.28
2023-02-03T02:44:44.380Z,97707.78
2023-02-03T02:45:46.251Z,97702.84
2023-02-03T02:46:50.010Z,97715.84
2023-02-03T02:47:54.153Z,97707.06
2023-02-03T02:48:59.850Z,97706.66
2023-02-03T02:50:07.667Z,97703.84
2023-02-03T02:51:12.666Z,97693.31
2023-02-03T02:52:15.760Z,97700.34
2023-02-03T02:53:20.323Z,97709.94
2023-02-03T02:54:24.202Z,97701.50
2023-02-03T02:55:31.705Z,97695.44
2023-02-03T02:56:35.053Z,97699.38
2023-02-03T02:57:38.066Z,97700.06
2023-02-03T02:58:41.564Z,97699.94
2023-02-03T02:59:43.385Z,97694.00
2023-02-03T03:00:45.845Z,97688.00
2023-02-03T03:01:47.695Z,97697.78
2023-02-03T03:02:49.517Z,97708.53
2023-02-03T03:03:52.481Z,97701.09
2023-02-03T03:04:54.636Z,97690.81
2023-02-03T03:06:04.160Z,97686.34
2023-02-03T03:07:12.320Z,97688.09
2023-02-03T03:08:15.568Z,97689.31
2023-02-03T03:09:22.047Z,97681.03
2023-02-03T03:10:27.955Z,97691.03
2023-02-03T03:11:32.724Z,97692.41
2023-02-03T03:12:39.910Z,97677.66
2023-02-03T03:13:45.301Z,97680.25
2023-02-03T03:14:50.777Z,97682.81
2023-02-03T03:15:53.780Z,97678.88
2023-02-03T03:17:00.372Z,97694.00
2023-02-03T03:18:06.007Z,97699.66
2023-02-03T03:19:10.493Z,97684.50
2023-02-03T03:20:16.630Z,97695.31
2023-02-03T03:21:23.039Z,97686.41
2023-02-03T03:22:29.133Z,97671.53
2023-02-03T03:23:32.381Z,97672.09
2023-02-03T03:24:37.049Z,97676.44
2023-02-03T03:25:43.936Z,97671.28
2023-02-03T03:26:52.505Z,97675.47
2023-02-03T03:28:02.075Z,97667.19
2023-02-03T03:29:08.050Z,97660.16
2023-02-03T03:30:12.130Z,97673.72
2023-02-03T03:31:14.107Z,97674.28
2023-02-03T03:32:16.054Z,97664.78
2023-02-03T03:33:17.858Z,97669.69
2023-02-03T03:34:20.029Z,97674.84
2023-02-03T03:35:23.400Z,97657.53
2023-02-03T03:36:31.212Z,97660.66
2023-02-03T03:37:36.647Z,97665.13
2023-02-03T03:38:43.099Z,97666.00
2023-02-03T03:39:50.815Z,97663.25
2023-02-03T03:40:55.487Z,97659.31
2023-02-03T03:42:04.809Z,97658.25
2023-02-03T03:43:24.367Z,97673.41
2023-02-03T03:44:30.038Z,97665.13
2023-02-03T03:45:41.323Z,97653.91
2023-02-03T03:46:50.747Z,97652.72
2023-02-03T03:47:58.990Z,97674.00
2023-02-03T03:49:03.204Z,97658.28
2023-02-03T03:50:07.268Z,97654.66
2023-02-03T03:51:12.189Z,97658.16
2023-02-03T03:52:17.081Z,97661.28
2023-02-03T03:53:20.135Z,97654.25
2023-02-03T03:54:23.641Z,97650.75
2023-02-03T03:55:28.326Z,97650.75
2023-02-03T03:56:35.725Z,97655.06
2023-02-03T03:57:40.213Z,97651.63
2023-02-03T03:58:45.491Z,97649.88
2023-02-03T03:59:48.981Z,97652.31
2023-02-03T04:00:51.650Z,97664.63
2023-02-03T04:01:54.199Z,97648.50
2023-02-03T04:02:57.237Z,97638.22
2023-02-03T04:04:01.269Z,97656.22
2023-02-03T04:05:03.701Z,97653.66
2023-02-03T04:06:06.090Z,97641.34
2023-02-03T04:07:07.936Z,97653.13
2023-02-03T04:08:09.910Z,97644.47
2023-02-03T04:09:11.809Z,97636.66
2023-02-03T04:10:22.192Z,97657.22
2023-02-03T04:11:42.720Z,97648.81
2023-02-03T04:12:44.569Z,97637.56
2023-02-03T04:13:46.317Z,97640.94
2023-02-03T04:14:48.125Z,97639.75
2023-02-03T04:15:49.982Z,97654.03
2023-02-03T04:16:51.810Z,97646.03
2023-02-03T04:17:55.249Z,97660.66
2023-02-03T04:18:57.599Z,97654.03
2023-02-03T04:19:59.439Z,97641.41
2023-02-03T04:21:01.269Z,97647.47
2023-02-03T04:22:03.109Z,97656.16
2023-02-03T04:23:05.005Z,97659.91
2023-02-03T04:24:07.250Z,97648.38
2023-02-03T04:25:09.724Z,97643.13
2023-02-03T04:26:11.652Z,97649.88
2023-02-03T04:27:13.438Z,97654.09
2023-02-03T04:28:15.417Z,97647.31
2023-02-03T04:29:17.180Z,97644.59
2023-02-03T04:30:19.121Z,97648.56
2023-02-03T04:31:21.074Z,97639.06
2023-02-03T04:32:22.951Z,97642.59
2023-02-03T04:33:24.813Z,97637.97
2023-02-03T04:34:26.577Z,97642.53
2023-02-03T04:35:28.353Z,97660.69
2023-02-03T04:36:30.246Z,97656.22
2023-02-03T04:37:32.040Z,97651.75
2023-02-03T04:38:33.877Z,97661.00
2023-02-03T04:39:35.610Z,97663.31
2023-02-03T04:40:37.537Z,97662.09
2023-02-03T04:41:39.369Z,97652.38
2023-02-03T04:42:41.228Z,97641.84
2023-02-03T04:43:43.178Z,97647.53
2023-02-03T04:44:45.105Z,97651.84
2023-02-03T04:45:47.008Z,97654.03
2023-02-03T04:46:48.787Z,97636.66
2023-02-03T04:47:54.744Z,97618.63
2023-02-03T04:48:56.773Z,97638.00
2023-02-03T04:49:58.602Z,97623.13
2023-02-03T04:51:04.141Z,97623.66
2023-02-03T04:52:06.508Z,97630.19
2023-02-03T04:53:08.309Z,97627.75
2023-02-03T04:54:10.793Z,97628.56
2023-02-03T04:55:12.530Z,97642.38
2023-02-03T04:56:16.322Z,97645.78
2023-02-03T04:57:18.115Z,97639.56
2023-02-03T04:58:19.872Z,97654.88
2023-02-03T04:59:21.693Z,97649.72
2023-02-03T05:00:23.568Z,97633.31
2023-02-03T05:01:25.602Z,97639.28
2023-02-03T05:02:27.498Z,97632.06
2023-02-03T05:03:29.283Z,97629.66
2023-02-03T05:04:31.659Z,97641.56
2023-02-03T05:05:33.428Z,97640.88
2023-02-03T05:06:35.343Z,97632.03
2023-02-03T05:07:37.206Z,97635.13
2023-02-03T05:08:39.022Z,97641.78
2023-02-03T05:09:40.915Z,97633.00
2023-02-03T05:10:42.650Z,97635.81
2023-02-03T05:11:44.448Z,97646.94
2023-02-03T05:12:46.316Z,97653.97
2023-02-03T05:13:48.435Z,97642.47
2023-02-03T05:14:50.276Z,97651.81
2023-02-03T05:15:52.068Z,97652.50
2023-02-03T05:16:54.062Z,97655.19
2023-02-03T05:17:56.375Z,97647.63
2023-02-03T05:18:58.199Z,97636.09
2023-02-03T05:20:00.014Z,97637.28
2023-02-03T05:21:01.830Z,97626.03
2023-02-03T05:22:03.857Z,97636.88
2023-02-03T05:23:05.765Z,97645.81
2023-02-03T05:24:08.232Z,97654.72
2023-02-03T05:25:10.504Z,97658.38
2023-02-03T05:26:12.534Z,97647.91
2023-02-03T05:27:14.379Z,97652.94
2023-02-03T05:28:16.247Z,97649.97
2023-02-03T05:29:18.014Z,97642.25
2023-02-03T05:30:19.829Z,97645.63
2023-02-03T05:31:21.799Z,97655.34
2023-02-03T05:32:23.576Z,97662.78
2023-02-03T05:33:25.471Z,97654.25
2023-02-03T05:34:27.331Z,97658.19
2023-02-03T05:35:29.095Z,97636.31
2023-02-03T05:36:31.065Z,97632.53
2023-02-03T05:37:32.889Z,97628.59
2023-02-03T05:38:34.660Z,97634.66
2023-02-03T05:39:36.488Z,97648.31
2023-02-03T05:40:56.952Z,97654.03
2023-02-03T05:41:59.440Z,97653.91
2023-02-03T05:43:01.270Z,97639.97
2023-02-03T05:44:03.030Z,97628.59
2023-02-03T05:45:04.982Z,97636.88
2023-02-03T05:46:07.991Z,97651.25
2023-02-03T05:47:09.902Z,97633.38
2023-02-03T05:48:11.977Z,97632.00
2023-02-03T05:49:14.079Z,97634.84
2023-02-03T05:50:15.918Z,97633.91
2023-02-03T05:51:17.701Z,97625.78
2023-02-03T05:52:19.537Z,97634.06
2023-02-03T05:53:21.590Z,97646.78
2023-02-03T05:54:23.433Z,97648.44
2023-02-03T05:55:25.205Z,97646.53
2023-02-03T05:56:27.008Z,97630.84
2023-02-03T05:57:30.718Z,97630.72
2023-02-03T05:58:33.851Z,97635.84
2023-02-03T05:59:35.632Z,97654.50
2023-02-03T06:00:37.961Z,97636.31
2023-02-03T06:01:39.777Z,97619.56
2023-02-03T06:02:41.624Z,97625.97
2023-02-03T06:03:46.022Z,97633.69
2023-02-03T06:04:48.299Z,97624.06
2023-02-03T06:05:50.201Z,97624.06
2023-02-03T06:06:51.959Z,97604.97
2023-02-03T06:07:53.863Z,97600.38
2023-02-03T06:08:57.246Z,97610.28
2023-02-03T06:09:59.160Z,97610.75
2023-02-03T06:11:01.091Z,97592.75
2023-02-03T06:12:02.899Z,97614.97
2023-02-03T06:13:08.910Z,97616.75
2023-02-03T06:14:10.827Z,97601.88
2023-02-03T06:15:12.701Z,97611.19
2023-02-03T06:16:14.903Z,97625.97
2023-02-03T06:17:16.675Z,97623.50
2023-02-03T06:18:18.414Z,97611.19
2023-02-03T06:19:20.268Z,97602.28
2023-02-03T06:20:22.124Z,97609.75
2023-02-03T06:21:24.089Z,97629.38
2023-02-03T06:22:25.868Z,97628.81
2023-02-03T06:23:27.711Z,97602.56
2023-02-03T06:24:29.605Z,97598.22
2023-02-03T06:25:32.921Z,97613.66
2023-02-03T06:26:34.790Z,97628.94
2023-02-03T06:27:36.656Z,97604.00
2023-02-03T06:28:38.609Z,97587.47
2023-02-03T06:29:40.633Z,97592.63
2023-02-03T06:30:42.912Z,97607.94
2023-02-03T06:31:45.065Z,97612.16
2023-02-03T06:32:48.328Z,97610.00
2023-02-03T06:33:50.116Z,97598.78
2023-02-03T06:34:52.021Z,97602.03
2023-02-03T06:35:54.253Z,97614.22
2023-02-03T06:36:56.136Z,97603.63
2023-02-03T06:37:57.995Z,97603.50
2023-02-03T06:38:59.794Z,97597.69
2023-02-03T06:40:02.259Z,97617.31
2023-02-03T06:41:04.145Z,97611.44
2023-02-03T06:42:06.049Z,97580.56
2023-02-03T06:43:07.911Z,97579.50
2023-02-03T06:44:09.722Z,97588.72
2023-02-03T06:45:11.619Z,97608.50
2023-02-03T06:46:13.420Z,97598.22
2023-02-03T06:47:15.222Z,97583.31
2023-02-03T06:48:17.088Z,97586.81
2023-02-03T06:49:19.120Z,97593.88
2023-02-03T06:50:21.138Z,97612.84
2023-02-03T06:51:25.026Z,97601.59
2023-02-03T06:52:26.760Z,97597.81
2023-02-03T06:53:28.552Z,97611.25
2023-02-03T06:54:31.117Z,97618.56
2023-02-03T06:55:32.926Z,97615.06
2023-02-03T06:56:34.744Z,97615.75
2023-02-03T06:57:36.588Z,97606.94
2023-02-03T06:58:38.401Z,97610.31
2023-02-03T06:59:40.252Z,97603.16
2023-02-03T07:00:42.125Z,97588.38
2023-02-03T07:01:43.943Z,97588.25
2023-02-03T07:02:46.620Z,97602.75
2023-02-03T07:03:48.467Z,97596.09
2023-02-03T07:04:50.768Z,97581.59
2023-02-03T07:05:52.686Z,97581.47
2023-02-03T07:06:54.612Z,97596.09
2023-02-03T07:07:56.371Z,97585.81
2023-02-03T07:09:00.675Z,97556.69
2023-02-03T07:10:04.072Z,97561.81
2023-02-03T07:11:06.020Z,97575.75
2023-02-03T07:12:08.267Z,97555.31
2023-02-03T07:13:10.106Z,97563.03
2023-02-03T07:14:11.938Z,97554.34
2023-02-03T07:15:13.789Z,97554.09
2023-02-03T07:16:15.713Z,97568.47
2023-02-03T07:17:17.491Z,97562.91
2023-02-03T07:18:45.846Z,97558.31
2023-02-03T07:19:45.915Z,97580.56
2023-02-03T07:20:47.793Z,97588.97
2023-02-03T07:21:49.629Z,97592.34
2023-02-03T07:22:52.064Z,97573.34
2023-02-03T07:23:53.974Z,97571.47
2023-02-03T07:24:55.847Z,97580.81
2023-02-03T07:26:01.642Z,97572.13
2023-02-03T07:27:04.655Z,97578.94
2023-02-03T07:28:06.661Z,97572.41
2023-02-03T07:29:08.628Z,97562.38
2023-02-03T07:30:10.829Z,97551.25
2023-02-03T07:31:12.765Z,97590.69
2023-02-03T07:32:15.039Z,97598.59
2023-02-03T07:33:16.952Z,97556.97
2023-02-03T07:34:18.799Z,97573.78
2023-02-03T07:35:21.069Z,97570.25
2023-02-03T07:36:23.043Z,97586.38
2023-02-03T07:37:24.929Z,97596.44
2023-02-03T07:38:27.617Z,97603.88
2023-02-03T07:39:29.490Z,97602.94
2023-02-03T07:40:31.332Z,97605.38
2023-02-03T07:41:33.247Z,97609.44
2023-02-03T07:42:35.303Z,97586.94
2023-02-03T07:43:37.070Z,97612.03
2023-02-03T07:44:39.433Z,97598.59
2023-02-03T07:45:41.351Z,97591.00
2023-02-03T07:46:45.149Z,97601.03
2023-02-03T07:47:47.017Z,97608.78
2023-02-03T07:48:48.741Z,97571.06
2023-02-03T07:49:50.601Z,97569.69
2023-02-03T07:50:53.163Z,97573.94
2023-02-03T07:51:55.220Z,97586.69
2023-02-03T07:52:57.059Z,97602.00
2023-02-03T07:53:58.829Z,97602.66
2023-02-03T07:55:00.630Z,97596.44
2023-02-03T07:56:03.349Z,97595.38
2023-02-03T07:57:05.175Z,97596.97
2023-02-03T07:58:07.159Z,97606.59
2023-02-03T07:59:08.923Z,97609.19
2023-02-03T08:00:12.163Z,97613.28
2023-02-03T08:01:15.427Z,97612.44
2023-02-03T08:02:17.232Z,97590.34
2023-02-03T08:03:19.059Z,97563.22
2023-02-03T08:04:21.138Z,97573.66
2023-02-03T08:05:23.042Z,97593.03
2023-02-03T08:06:25.764Z,97584.91
2023-02-03T08:07:27.571Z,97588.84
2023-02-03T08:08:29.450Z,97580.69
2023-02-03T08:09:31.250Z,97573.66
2023-02-03T08:10:33.120Z,97568.38
2023-02-03T08:11:34.950Z,97557.81
2023-02-03T08:12:36.871Z,97566.22
2023-02-03T08:13:38.673Z,97575.69
2023-02-03T08:14:40.485Z,97571.63
2023-02-03T08:15:42.336Z,97583.69
2023-02-03T08:16:44.204Z,97567.16
2023-02-03T08:17:46.573Z,97553.03
2023-02-03T08:18:48.616Z,97544.91
2023-02-03T08:19:50.551Z,97559.00
2023-02-03T08:20:52.458Z,97555.50
2023-02-03T08:21:54.270Z,97555.50
2023-02-03T08:22:56.124Z,97556.03
2023-02-03T08:23:58.040Z,97547.63
2023-02-03T08:24:59.788Z,97538.38
2023-02-03T08:26:01.661Z,97552.78
2023-02-03T08:27:03.540Z,97564.69
2023-02-03T08:28:05.483Z,97555.06
2023-02-03T08:29:08.273Z,97551.41
2023-02-03T08:30:12.757Z,97544.34
2023-02-03T08:31:14.789Z,97542.31
2023-02-03T08:32:18.955Z,97535.25
2023-02-03T08:33:20.865Z,97556.84
2023-02-03T08:34:22.753Z,97571.75
2023-02-03T08:35:24.902Z,97553.72
2023-02-03T08:36:44.954Z,97555.19
2023-02-03T08:37:46.833Z,97552.63
2023-02-03T08:38:48.726Z,97544.91
2023-02-03T08:39:50.801Z,97552.63
2023-02-03T08:40:52.764Z,97551.69
2023-02-03T08:41:54.691Z,97559.13
2023-02-03T08:42:56.608Z,97570.25
2023-02-03T08:43:58.519Z,97581.41
2023-02-03T08:45:00.430Z,97581.25
2023-02-03T08:46:06.724Z,97575.81
2023-02-03T08:47:08.577Z,97572.31
2023-02-03T08:48:10.425Z,97573.09
2023-02-03T08:49:12.593Z,97574.72
2023-02-03T08:50:14.496Z,97556.84
2023-02-03T08:51:17.500Z,97544.88
2023-02-03T08:52:19.819Z,97550.16
2023-02-03T08:53:21.763Z,97544.22
2023-02-03T08:54:24.299Z,97549.50
2023-02-03T08:55:26.133Z,97563.34
2023-02-03T08:56:28.023Z,97556.28
2023-02-03T08:57:32.841Z,97537.03
2023-02-03T08:58:34.698Z,97521.81
2023-02-03T08:59:38.987Z,97518.13
2023-02-03T09:00:40.813Z,97529.94
2023-02-03T09:01:46.091Z,97546.47
2023-02-03T09:02:48.079Z,97559.53
2023-02-03T09:03:50.012Z,97567.16
2023-02-03T09:04:52.351Z,97548.81
2023-02-03T09:05:54.516Z,97551.81
2023-02-03T09:06:56.589Z,97547.34
2023-02-03T09:07:58.480Z,97543.53
2023-02-03T09:09:00.391Z,97542.44
2023-02-03T09:10:02.795Z,97537.94
2023-02-03T09:11:08.799Z,97537.81
2023-02-03T09:12:13.294Z,97534.81
2023-02-03T09:13:15.516Z,97537.25
2023-02-03T09:14:17.481Z,97543.22
2023-02-03T09:15:21.725Z,97564.38
2023-02-03T09:16:25.068Z,97552.97
2023-02-03T09:17:28.311Z,97544.13
2023-02-03T09:18:30.259Z,97548.34
2023-02-03T09:19:34.746Z,97558.00
2023-02-03T09:20:37.358Z,97544.31
2023-02-03T09:21:41.326Z,97551.06
2023-02-03T09:22:46.788Z,97561.94
2023-02-03T09:23:48.914Z,97572.13
2023-02-03T09:24:51.686Z,97563.56
2023-02-03T09:25:53.607Z,97545.22
2023-02-03T09:26:56.223Z,97572.09
2023-02-03T09:27:58.125Z,97589.59
2023-02-03T09:29:00.127Z,97577.88
2023-02-03T09:30:02.096Z,97570.41
2023-02-03T09:31:05.446Z,97559.94
2023-02-03T09:32:10.688Z,97569.56
2023-02-03T09:33:12.639Z,97570.28
2023-02-03T09:34:14.560Z,97558.31
2023-02-03T09:35:16.442Z,97558.31
2023-02-03T09:36:18.306Z,97556.00
2023-02-03T09:37:20.179Z,97568.91
2023-02-03T09:38:22.246Z,97578.28
2023-02-03T09:39:24.209Z,97581.00
2023-02-03T09:40:30.100Z,97583.56
2023-02-03T09:41:32.177Z,97583.56
2023-02-03T09:42:35.083Z,97593.63
2023-02-03T09:44:03.017Z,97593.50
2023-02-03T09:45:07.952Z,97597.56
2023-02-03T09:46:18.150Z,97589.81
2023-02-03T09:47:25.965Z,97583.00
2023-02-03T09:48:31.880Z,97575.28
2023-02-03T09:49:36.415Z,97567.41
2023-02-03T09:50:40.348Z,97590.06
2023-02-03T09:52:08.655Z,97595.81
2023-02-03T09:53:30.737Z,97590.94
2023-02-03T09:54:39.534Z,97577.59
2023-02-03T09:55:43.378Z,97596.06
2023-02-03T09:56:51.085Z,97600.00
2023-02-03T09:57:57.545Z,97586.00
2023-02-03T09:59:00.147Z,97583.78
2023-02-03T10:00:04.120Z,97578.34
2023-02-03T10:01:10.251Z,97570.63
2023-02-03T10:02:12.077Z,97571.06
2023-02-03T10:03:17.224Z,97563.31
2023-02-03T10:04:24.751Z,97559.22
2023-02-03T10:05:26.715Z,97578.13
2023-02-03T10:06:31.516Z,97595.50
2023-02-03T10:07:41.728Z,97572.66
2023-02-03T10:08:58.136Z,97554.16
2023-02-03T10:10:06.285Z,97566.78
2023-02-03T10:11:11.005Z,97563.91
2023-02-03T10:12:12.775Z,97559.41
2023-02-03T10:13:31.600Z,97559.28
2023-02-03T10:14:33.621Z,97554.78
2023-02-03T10:15:54.017Z,97562.53
2023-02-03T10:17:04.718Z,97548.69
2023-02-03T10:18:26.738Z,97546.25
2023-02-03T10:19:47.281Z,97547.19
2023-02-03T10:20:49.093Z,97537.69
2023-02-03T10:21:55.568Z,97524.47
2023-02-03T10:22:59.061Z,97538.38
2023-02-03T10:24:02.246Z,97545.94
2023-02-03T10:25:04.074Z,97544.19
2023-02-03T10:26:07.900Z,97543.22
2023-02-03T10:27:16.827Z,97516.59
2023-02-03T10:28:19.845Z,97523.28
2023-02-03T10:29:28.324Z,97551.31
2023-02-03T10:30:34.777Z,97537.34
2023-02-03T10:31:37.878Z,97526.78
2023-02-03T10:32:39.779Z,97532.50
2023-02-03T10:33:41.663Z,97515.56
2023-02-03T10:34:45.242Z,97507.50
2023-02-03T10:35:51.870Z,97510.75
2023-02-03T10:36:57.858Z,97512.41
2023-02-03T10:38:00.363Z,97506.38
2023-02-03T10:39:08.792Z,97515.03
2023-02-03T10:40:14.836Z,97512.69
2023-02-03T10:41:17.475Z,97501.78
2023-02-03T10:42:20.098Z,97499.41
2023-02-03T10:43:40.832Z,97499.13
2023-02-03T10:44:48.491Z,97498.03
2023-02-03T10:45:50.536Z,97486.59
2023-02-03T10:46:52.361Z,97469.50
2023-02-03T10:47:55.714Z,97458.34
2023-02-03T10:48:57.625Z,97474.50
2023-02-03T10:50:01.669Z,97469.34
2023-02-03T10:51:03.735Z,97465.00
2023-02-03T10:52:05.715Z,97469.03
2023-02-03T10:53:23.273Z,97471.84
2023-02-03T10:54:30.825Z,97475.47
2023-02-03T10:55:32.727Z,97477.47
2023-02-03T10:56:39.041Z,97470.38
2023-02-03T10:57:40.909Z,97468.44
2023-02-03T10:58:50.558Z,97447.13
2023-02-03T10:59:52.403Z,97477.78
2023-02-03T11:01:12.834Z,97488.91
2023-02-03T11:02:26.256Z,97464.84
2023-02-03T11:03:31.077Z,97465.00
2023-02-03T11:04:33.476Z,97459.03
2023-02-03T11:05:35.634Z,97454.00
2023-02-03T11:06:53.815Z,97438.50
2023-02-03T11:07:56.492Z,97458.06
2023-02-03T11:08:58.347Z,97467.44
2023-02-03T11:10:00.288Z,97465.53
2023-02-03T11:11:04.436Z,97445.66
2023-02-03T11:12:17.270Z,97434.53
2023-02-03T11:13:24.272Z,97446.97
2023-02-03T11:14:26.086Z,97414.19
2023-02-03T11:15:28.325Z,97416.66
2023-02-03T11:16:32.537Z,97428.59
2023-02-03T11:17:36.734Z,97445.06
2023-02-03T11:18:38.524Z,97434.41
2023-02-03T11:19:40.392Z,97422.16
2023-02-03T11:20:42.379Z,97432.50
2023-02-03T11:21:46.851Z,97424.91
2023-02-03T11:22:48.907Z,97428.28
2023-02-03T11:24:09.040Z,97430.38
2023-02-03T11:25:19.287Z,97427.78
2023-02-03T11:26:23.277Z,97431.75
2023-02-03T11:27:25.648Z,97423.66
2023-02-03T11:28:29.167Z,97397.84
2023-02-03T11:29:32.446Z,97400.41
2023-02-03T11:30:34.372Z,97411.28
2023-02-03T11:31:37.300Z,97414.53
2023-02-03T11:32:43.928Z,97417.59
2023-02-03T11:33:49.521Z,97441.22
2023-02-03T11:34:58.953Z,97414.41
2023-02-03T11:36:02.861Z,97399.56
2023-02-03T11:37:23.256Z,97410.88
2023-02-03T11:38:32.819Z,97421.88
2023-02-03T11:39:37.599Z,97411.53
2023-02-03T11:40:41.503Z,97413.59
2023-02-03T11:41:43.491Z,97400.69
2023-02-03T11:42:46.695Z,97406.00
2023-02-03T11:43:48.731Z,97387.91
2023-02-03T11:44:51.348Z,97405.03
2023-02-03T11:45:54.932Z,97413.75
2023-02-03T11:47:02.582Z,97408.44
2023-02-03T11:48:16.380Z,97408.28
2023-02-03T11:49:41.601Z,97405.03
2023-02-03T11:50:43.660Z,97395.84
2023-02-03T11:51:51.264Z,97407.25
2023-02-03T11:52:59.133Z,97401.94
2023-02-03T11:54:19.354Z,97392.28
2023-02-03T11:55:33.122Z,97386.97
2023-02-03T11:56:53.555Z,97392.13
2023-02-03T11:58:00.468Z,97380.81
2023-02-03T11:59:05.342Z,97399.56
2023-02-03T12:00:27.795Z,97394.41
2023-02-03T12:01:38.915Z,97388.44
2023-02-03T12:02:40.867Z,97384.72
2023-02-03T12:03:51.869Z,97378.47
2023-02-03T12:05:12.437Z,97370.19
2023-02-03T12:06:32.911Z,97378.59
2023-02-03T12:07:43.867Z,97367.28
2023-02-03T12:09:00.809Z,97369.13
2023-02-03T12:10:11.951Z,97354.78
2023-02-03T12:11:13.727Z,97362.91
2023-02-03T12:12:21.342Z,97346.28
2023-02-03T12:13:41.688Z,97343.84
2023-02-03T12:14:43.522Z,97360.97
2023-02-03T12:15:54.934Z,97365.03
2023-02-03T12:16:56.823Z,97364.38
2023-02-03T12:17:58.618Z,97368.56
2023-02-03T12:19:00.451Z,97362.44
2023-02-03T12:20:20.908Z,97348.53
2023-02-03T12:21:34.453Z,97328.03
2023-02-03T12:22:55.072Z,97333.34
2023-02-03T12:24:12.523Z,97331.91
2023-02-03T12:25:17.073Z,97340.59
2023-02-03T12:26:21.928Z,97327.34
2023-02-03T12:27:39.259Z,97323.25
2023-02-03T12:28:47.112Z,97325.69
2023-02-03T12:29:57.166Z,97318.09
2023-02-03T12:31:02.994Z,97314.56
2023-02-03T12:32:23.303Z,97307.75
2023-02-03T12:33:28.604Z,97319.50